createdAt,value
2019-01-25T00:09:25.871Z,50.17
2019-01-25T00:12:53.185Z,49.73
2019-01-25T00:16:43.927Z,50.77
2019-01-25T00:29:52.853Z,48.73
2019-01-25T00:32:33.566Z,47.50
2019-01-25T00:35:42.996Z,50.30
2019-01-25T00:39:32.250Z,48.70
2019-01-25T00:48:39.917Z,48.03
2019-01-25T00:51:53.014Z,49.63
2019-01-25T00:55:21.908Z,49.40
2019-01-25T00:58:03.704Z,41.53
2019-01-25T01:00:45.230Z,45.33
2019-01-25T01:03:21.504Z,50.20
2019-01-25T01:06:16.986Z,51.07
2019-01-25T01:12:34.947Z,49.53
2019-01-25T01:15:20.541Z,50.50
2019-01-25T01:18:21.304Z,47.27
2019-01-25T01:21:27.637Z,50.30
2019-01-25T01:24:49.647Z,44.27
2019-01-25T01:28:03.568Z,46.53
2019-01-25T01:30:43.648Z,41.47
2019-01-25T01:33:46.720Z,45.70
2019-01-25T01:40:12.328Z,37.70
2019-01-25T01:46:54.911Z,32.90
2019-01-25T01:49:45.758Z,33.87
2019-01-25T01:53:13.915Z,36.20
2019-01-25T01:55:46.355Z,33.47
2019-01-25T02:01:45.640Z,29.60
2019-01-25T02:04:52.869Z,24.67
2019-01-25T02:07:30.305Z,25.73
2019-01-25T02:10:31.699Z,25.67
2019-01-25T02:13:04.880Z,27.30
2019-01-25T02:16:06.377Z,26.17
2019-01-25T02:18:45.701Z,25.27
2019-01-25T02:28:06.883Z,25.57
2019-01-25T02:31:14.080Z,27.13
2019-01-25T02:33:56.176Z,27.70
2019-01-25T02:37:16.332Z,26.40
2019-01-25T02:41:14.665Z,25.47
2019-01-25T02:46:20.888Z,25.90
2019-01-25T02:49:03.146Z,26.90
2019-01-25T02:51:50.247Z,28.00
2019-01-25T03:04:15.211Z,28.43
2019-01-25T03:07:10.928Z,26.50
2019-01-25T03:09:54.488Z,29.63
2019-01-25T03:12:48.574Z,28.40
2019-01-25T03:16:08.873Z,28.10
2019-01-25T03:22:06.604Z,27.77
2019-01-25T03:25:41.082Z,28.40
2019-01-25T03:31:29.311Z,26.80
2019-01-25T03:37:43.370Z,29.67
2019-01-25T03:39:57.004Z,28.60
2019-01-25T03:42:31.930Z,29.47
2019-01-25T03:45:19.949Z,27.80
2019-01-25T03:48:03.797Z,35.17
2019-01-25T03:50:39.543Z,28.53
2019-01-25T03:53:12.397Z,31.73
2019-01-25T03:56:14.442Z,31.87
2019-01-25T04:02:32.450Z,31.63
2019-01-25T04:05:13.219Z,29.93
2019-01-25T04:07:38.926Z,29.93
2019-01-25T04:10:08.255Z,31.50
2019-01-25T04:12:36.768Z,33.00
2019-01-25T04:15:06.135Z,34.03
2019-01-25T04:17:34.615Z,33.80
2019-01-25T04:20:03.095Z,32.63
2019-01-25T04:22:31.554Z,36.23
2019-01-25T04:25:00.008Z,32.47
2019-01-25T04:27:28.419Z,35.03
2019-01-25T04:29:56.783Z,33.97
2019-01-25T04:32:25.225Z,32.40
2019-01-25T04:34:53.571Z,33.53
2019-01-25T04:37:22.003Z,32.57
2019-01-25T04:39:50.447Z,33.57
2019-01-25T04:42:18.867Z,33.40
2019-01-25T04:44:47.236Z,30.50
2019-01-25T04:47:17.303Z,34.10
2019-01-25T04:49:45.688Z,32.30
2019-01-25T04:52:14.164Z,32.37
2019-01-25T04:54:42.688Z,33.73
2019-01-25T04:57:11.182Z,34.13
2019-01-25T04:59:39.540Z,35.53
2019-01-25T05:02:07.987Z,35.43
2019-01-25T05:04:36.442Z,34.77
2019-01-25T05:07:05.522Z,35.80
2019-01-25T05:09:37.776Z,34.70
2019-01-25T05:12:06.280Z,37.33
2019-01-25T05:14:34.767Z,37.23
2019-01-25T05:17:04.019Z,37.53
2019-01-25T05:19:38.008Z,36.10
2019-01-25T05:22:06.502Z,38.63
2019-01-25T05:24:35.023Z,35.70
2019-01-25T05:27:03.463Z,33.83
2019-01-25T05:29:46.855Z,33.90
2019-01-25T05:32:15.271Z,35.70
2019-01-25T05:34:43.615Z,38.23
2019-01-25T05:37:12.084Z,36.07
2019-01-25T05:39:40.523Z,36.90
2019-01-25T05:42:08.966Z,35.03
2019-01-25T05:44:37.309Z,35.43
2019-01-25T05:47:08.289Z,35.83
2019-01-25T05:49:36.835Z,37.20
2019-01-25T05:52:05.668Z,36.63
2019-01-25T05:54:34.094Z,35.70
2019-01-25T05:57:02.531Z,36.83
2019-01-25T05:59:30.992Z,36.67
2019-01-25T06:01:59.447Z,35.70
2019-01-25T06:04:32.636Z,36.10
2019-01-25T06:07:01.128Z,32.00
2019-01-25T06:09:29.551Z,36.60
2019-01-25T06:11:57.985Z,35.47
2019-01-25T06:14:26.503Z,35.37
2019-01-25T06:16:56.896Z,40.75
2019-01-25T06:19:25.327Z,37.07
2019-01-25T06:21:55.155Z,34.97
2019-01-25T06:24:23.571Z,38.90
2019-01-25T06:26:54.239Z,36.53
2019-01-25T06:29:22.596Z,43.50
2019-01-25T06:31:51.047Z,54.42
2019-01-25T06:34:19.472Z,40.60
2019-01-25T06:36:48.911Z,50.80
2019-01-25T06:39:17.351Z,51.63
2019-01-25T06:41:45.832Z,39.27
2019-01-25T06:44:14.271Z,39.47
2019-01-25T06:46:42.691Z,38.30
2019-01-25T06:49:11.068Z,39.40
2019-01-25T06:51:39.436Z,37.70
2019-01-25T06:54:27.003Z,38.80
2019-01-25T06:57:33.865Z,37.87
2019-01-25T07:03:31.397Z,39.77
2019-01-25T07:06:18.969Z,40.70
2019-01-25T07:09:06.672Z,39.20
2019-01-25T07:11:54.245Z,39.60
2019-01-25T07:14:41.859Z,42.23
2019-01-25T07:17:29.427Z,37.10
2019-01-25T07:20:16.999Z,38.53
2019-01-25T07:23:04.580Z,40.63
2019-01-25T07:25:52.323Z,37.53
2019-01-25T07:28:39.896Z,40.20
2019-01-25T07:31:27.492Z,39.97
2019-01-25T07:34:15.139Z,37.03
2019-01-25T07:37:02.816Z,39.47
2019-01-25T07:39:50.384Z,41.00
2019-01-25T07:42:37.990Z,37.93
2019-01-25T07:45:25.760Z,38.40
2019-01-25T07:48:13.396Z,38.50
2019-01-25T07:51:01.475Z,41.10
2019-01-25T08:20:31.148Z,43.17
2019-01-25T08:22:59.516Z,41.37
2019-01-25T08:25:28.095Z,43.47
2019-01-25T08:27:56.617Z,40.77
2019-01-25T08:30:25.173Z,41.07
2019-01-25T08:32:53.820Z,42.53
2019-01-25T08:35:22.434Z,40.43
2019-01-25T08:37:51.024Z,45.07
2019-01-25T08:40:19.768Z,41.33
2019-01-25T08:42:48.451Z,45.03
2019-01-25T08:45:16.974Z,41.37
2019-01-25T08:47:45.552Z,39.93
2019-01-25T08:50:16.492Z,43.63
2019-01-25T08:52:45.060Z,45.27
2019-01-25T08:55:13.897Z,47.70
2019-01-25T08:57:42.387Z,46.33
2019-01-25T09:00:12.596Z,43.67
2019-01-25T09:02:41.156Z,41.93
2019-01-25T09:05:10.151Z,47.67
2019-01-25T09:07:38.927Z,45.63
2019-01-25T09:10:09.215Z,46.03
2019-01-25T09:12:37.698Z,45.97
2019-01-25T09:15:07.535Z,47.40
2019-01-25T09:17:36.140Z,44.77
2019-01-25T09:20:05.252Z,45.03
2019-01-25T09:22:33.718Z,45.03
2019-01-25T09:25:02.330Z,47.30
2019-01-25T09:27:30.778Z,46.77
2019-01-25T09:29:59.499Z,45.97
2019-01-25T09:32:28.007Z,46.10
2019-01-25T09:34:56.419Z,46.60
2019-01-25T09:37:24.976Z,47.33
2019-01-25T09:39:53.371Z,47.60
2019-01-25T09:42:21.880Z,45.83
2019-01-25T09:44:50.417Z,44.27
2019-01-25T09:47:18.846Z,44.03
2019-01-25T09:49:47.278Z,42.33
2019-01-25T09:52:15.736Z,45.03
2019-01-25T09:54:44.116Z,45.13
2019-01-25T09:57:12.578Z,45.93
2019-01-25T09:59:42.352Z,49.73
2019-01-25T10:02:10.852Z,47.73
2019-01-25T10:04:39.252Z,43.10
2019-01-25T10:07:07.733Z,44.57
2019-01-25T10:09:36.119Z,43.67
2019-01-25T10:12:04.559Z,44.33
2019-01-25T10:14:33.071Z,43.90
2019-01-25T10:17:01.501Z,43.10
2019-01-25T10:19:29.953Z,41.50
2019-01-25T10:21:58.404Z,41.17
2019-01-25T10:24:26.863Z,40.57
2019-01-25T10:26:55.324Z,42.20
2019-01-25T10:29:23.906Z,42.90
2019-01-25T10:31:52.393Z,45.93
2019-01-25T10:34:20.916Z,47.07
2019-01-25T10:36:49.379Z,47.70
2019-01-25T10:39:17.767Z,47.53
2019-01-25T10:41:46.256Z,47.07
2019-01-25T10:44:14.651Z,46.07
2019-01-25T10:46:43.022Z,47.77
2019-01-25T10:49:11.472Z,47.97
2019-01-25T10:51:39.939Z,45.13
2019-01-25T10:54:08.419Z,48.37
2019-01-25T10:56:41.810Z,49.87
2019-01-25T10:59:07.072Z,46.90
2019-01-25T11:01:35.570Z,50.60
2019-01-25T11:04:04.399Z,49.03
2019-01-25T11:06:32.859Z,53.17
2019-01-25T11:09:01.636Z,53.57
2019-01-25T11:11:30.067Z,54.87
2019-01-25T11:13:58.524Z,53.90
2019-01-25T11:16:27.005Z,57.63
2019-01-25T11:18:55.443Z,53.57
2019-01-25T11:21:23.923Z,57.03
2019-01-25T11:23:52.404Z,57.57
2019-01-25T11:26:20.868Z,58.93
2019-01-25T11:28:49.423Z,55.77
2019-01-25T11:31:17.908Z,56.33
2019-01-25T11:33:46.335Z,57.77
2019-01-25T11:36:14.820Z,58.40
2019-01-25T11:38:43.401Z,54.23
2019-01-25T11:41:12.221Z,53.73
2019-01-25T11:43:40.733Z,55.13
2019-01-25T11:46:09.233Z,54.70
2019-01-25T11:48:37.709Z,54.77
2019-01-25T11:51:06.152Z,55.73
2019-01-25T11:53:34.631Z,53.53
2019-01-25T11:56:03.172Z,54.03
2019-01-25T11:58:31.910Z,54.50
2019-01-25T12:01:02.540Z,52.50
2019-01-25T12:03:30.960Z,53.20
2019-01-25T12:05:59.642Z,51.40
2019-01-25T12:08:28.189Z,56.77
2019-01-25T12:10:56.655Z,57.47
2019-01-25T12:13:25.151Z,55.23
2019-01-25T12:15:53.624Z,56.90
2019-01-25T12:18:22.141Z,57.27
2019-01-25T12:20:50.815Z,56.30
2019-01-25T12:23:19.350Z,57.07
2019-01-25T12:25:49.035Z,56.63
2019-01-25T12:28:17.575Z,57.23
2019-01-25T12:30:46.060Z,57.27
2019-01-25T12:33:14.555Z,56.80
2019-01-25T12:35:46.548Z,59.23
2019-01-25T12:38:15.187Z,61.83
2019-01-25T12:40:43.782Z,56.30
2019-01-25T12:43:13.364Z,51.27
2019-01-25T12:45:41.785Z,49.70
2019-01-25T12:48:10.296Z,49.07
2019-01-25T12:50:43.100Z,46.87
2019-01-25T12:53:11.691Z,49.17
2019-01-25T12:55:40.264Z,46.63
2019-01-25T12:58:08.756Z,46.67
2019-01-25T13:00:41.855Z,52.07
2019-01-25T13:03:10.459Z,51.53
2019-01-25T13:05:38.982Z,48.63
2019-01-25T13:08:07.465Z,49.93
2019-01-25T13:10:37.514Z,50.23
2019-01-25T13:13:06.223Z,50.53
2019-01-25T13:15:34.800Z,48.80
2019-01-25T13:18:03.917Z,46.27
2019-01-25T13:20:34.044Z,46.37
2019-01-25T13:23:02.630Z,45.33
2019-01-25T13:25:31.233Z,49.10
2019-01-25T13:28:02.307Z,46.37
2019-01-25T13:30:34.903Z,45.70
2019-01-25T13:33:05.802Z,46.10
2019-01-25T13:35:36.470Z,47.40
2019-01-25T13:38:05.085Z,44.00
2019-01-25T13:40:34.647Z,46.43
2019-01-25T13:43:03.156Z,45.97
2019-01-25T13:45:32.529Z,45.20
2019-01-25T13:48:01.102Z,42.93
2019-01-25T13:50:31.146Z,41.90
2019-01-25T13:52:59.695Z,42.47
2019-01-25T13:55:28.496Z,42.97
2019-01-25T13:57:58.119Z,40.33
2019-01-25T14:00:31.616Z,40.57
2019-01-25T14:03:00.121Z,37.80
2019-01-25T14:05:29.854Z,40.97
2019-01-25T14:07:58.501Z,38.97
2019-01-25T14:10:36.137Z,39.83
2019-01-25T14:13:05.103Z,37.60
2019-01-25T14:15:33.879Z,40.57
2019-01-25T14:18:02.381Z,39.03
2019-01-25T14:20:31.368Z,38.53
2019-01-25T14:22:59.984Z,38.73
2019-01-25T14:25:28.595Z,34.73
2019-01-25T14:27:57.087Z,36.60
2019-01-25T14:30:31.012Z,36.67
2019-01-25T14:32:59.504Z,39.77
2019-01-25T14:35:35.062Z,35.37
2019-01-25T14:38:03.614Z,33.73
2019-01-25T14:40:32.047Z,34.83
2019-01-25T14:43:00.504Z,33.67
2019-01-25T14:45:29.171Z,35.07
2019-01-25T14:48:02.213Z,33.67
2019-01-25T14:50:30.908Z,34.00
2019-01-25T14:52:59.486Z,32.73
2019-01-25T14:55:28.043Z,32.50
2019-01-25T14:57:56.526Z,32.20
2019-01-25T15:00:24.980Z,32.70
2019-01-25T15:02:54.584Z,30.87
2019-01-25T15:05:23.043Z,27.53
2019-01-25T15:07:51.551Z,30.33
2019-01-25T15:10:21.208Z,30.13
2019-01-25T15:12:50.175Z,30.43
2019-01-25T15:15:18.673Z,29.37
2019-01-25T15:17:47.138Z,29.63
2019-01-25T15:20:16.740Z,28.87
2019-01-25T15:22:45.236Z,28.53
2019-01-25T15:25:13.703Z,29.57
2019-01-25T15:27:42.129Z,29.87
2019-01-25T15:30:12.608Z,26.90
2019-01-25T15:32:41.073Z,28.03
2019-01-25T15:35:09.991Z,28.03
2019-01-25T15:37:38.484Z,29.27
2019-01-25T15:40:07.648Z,29.93
2019-01-25T15:42:46.512Z,30.97
2019-01-25T15:45:29.793Z,28.13
2019-01-25T15:48:17.408Z,30.07
2019-01-25T15:53:58.657Z,30.53
2019-01-25T15:56:27.277Z,31.87
2019-01-25T15:58:55.899Z,31.30
2019-01-25T16:01:24.562Z,29.70
2019-01-25T16:03:53.267Z,29.30
2019-01-25T16:06:22.083Z,29.70
2019-01-25T16:08:57.050Z,29.90
2019-01-25T16:11:26.856Z,29.23
2019-01-25T16:13:55.625Z,28.97
2019-01-25T16:16:24.398Z,30.60
2019-01-25T16:18:53.450Z,37.73
2019-01-25T16:21:22.291Z,32.83
2019-01-25T16:23:51.029Z,40.08
2019-01-25T16:26:19.890Z,33.38
2019-01-25T16:28:50.719Z,31.33
2019-01-25T16:31:19.956Z,33.37
2019-01-25T16:33:48.969Z,37.90
2019-01-25T16:36:17.967Z,36.23
2019-01-25T16:38:46.746Z,33.60
2019-01-25T16:41:15.548Z,32.97
2019-01-25T16:43:44.228Z,33.60
2019-01-25T16:46:12.982Z,31.13
2019-01-25T16:48:41.851Z,33.27
2019-01-25T16:51:10.609Z,33.80
2019-01-25T16:53:40.241Z,34.90
2019-01-25T16:56:09.181Z,32.77
2019-01-25T16:58:38.342Z,46.10
2019-01-25T17:01:09.536Z,38.27
2019-01-25T17:03:38.453Z,35.80
2019-01-25T17:06:07.249Z,36.13
2019-01-25T17:08:36.456Z,36.90
2019-01-25T17:11:05.526Z,36.00
2019-01-25T17:13:34.366Z,37.27
2019-01-25T17:16:03.336Z,38.23
2019-01-25T17:18:33.165Z,38.40
2019-01-25T17:21:02.391Z,41.00
2019-01-25T17:23:31.215Z,39.27
2019-01-25T17:26:00.111Z,37.77
2019-01-25T17:28:29.543Z,41.30
2019-01-25T17:30:58.859Z,41.70
2019-01-25T17:33:27.802Z,45.13
2019-01-25T17:35:57.195Z,45.73
2019-01-25T17:38:30.767Z,45.40
2019-01-25T17:43:35.323Z,43.40
2019-01-25T17:46:22.890Z,50.10
2019-01-25T17:48:51.369Z,49.03
2019-01-25T17:51:38.928Z,49.07
2019-01-25T17:54:26.568Z,49.60
2019-01-25T17:57:14.128Z,46.60
2019-01-25T17:59:42.571Z,45.60
2019-01-25T18:02:30.140Z,45.33
2019-01-25T18:05:17.768Z,50.67
2019-01-25T18:10:54.511Z,44.30
2019-01-25T18:13:42.318Z,47.27
2019-01-25T18:16:29.905Z,48.13
2019-01-25T18:19:17.501Z,46.70
2019-01-25T18:39:51.278Z,41.37
2019-01-25T18:48:23.924Z,36.97
2019-01-25T18:51:11.525Z,44.67
2019-01-25T18:53:59.308Z,33.20
2019-01-25T18:56:46.924Z,32.17
2019-01-25T19:02:30.115Z,35.70
2019-01-25T19:05:17.696Z,36.30
2019-01-25T19:08:05.286Z,30.20
2019-01-25T19:10:53.819Z,40.50
2019-01-25T19:16:21.324Z,43.73
2019-01-25T19:19:08.916Z,32.47
2019-01-25T19:21:56.536Z,33.63
2019-01-25T19:24:44.179Z,37.27
2019-01-25T19:27:31.799Z,32.93
2019-01-25T19:30:20.510Z,30.37
2019-01-25T19:35:44.783Z,27.20
2019-01-25T19:41:26.112Z,30.93
2019-01-25T19:44:13.703Z,28.37
2019-01-25T19:47:01.402Z,28.90
2019-01-25T19:49:29.859Z,29.70
2019-01-25T19:51:58.413Z,27.00
2019-01-25T19:54:46.004Z,27.53
2019-01-25T19:57:14.463Z,29.20
2019-01-25T20:00:02.089Z,28.37
2019-01-25T20:02:49.705Z,32.03
2019-01-25T20:05:37.311Z,34.13
2019-01-25T20:08:24.937Z,31.73
2019-01-25T20:11:12.608Z,29.60
2019-01-25T20:14:00.176Z,34.60
2019-01-25T20:16:48.188Z,27.80
2019-01-25T20:19:16.996Z,27.20
2019-01-25T20:21:49.885Z,27.77
2019-01-25T20:24:18.777Z,43.17
2019-01-25T20:26:47.668Z,31.77
2019-01-25T20:29:22.748Z,27.13
2019-01-25T20:31:51.886Z,27.83
2019-01-25T20:34:20.776Z,27.93
2019-01-25T20:36:56.045Z,28.93
2019-01-25T20:39:27.182Z,27.37
2019-01-25T20:41:58.896Z,27.73
2019-01-25T20:44:27.738Z,28.52
2019-01-25T20:46:56.686Z,26.60
2019-01-25T20:49:28.983Z,26.77
2019-01-25T20:52:19.492Z,25.80
2019-01-25T20:57:23.703Z,28.47
2019-01-25T21:00:11.564Z,26.63
2019-01-25T21:02:41.214Z,24.43
2019-01-25T21:05:29.190Z,23.20
2019-01-25T21:08:16.872Z,26.07
2019-01-25T21:11:04.493Z,21.53
2019-01-25T21:13:52.218Z,22.43
2019-01-25T21:16:20.746Z,22.20
2019-01-25T21:19:08.414Z,21.90
2019-01-25T21:21:49.749Z,22.80
2019-01-25T21:24:18.610Z,23.30
2019-01-25T21:26:47.051Z,23.70
2019-01-25T21:29:15.507Z,23.63
2019-01-25T21:31:46.189Z,23.50
2019-01-25T21:34:16.944Z,23.80
2019-01-25T21:39:33.099Z,24.40
2019-01-25T21:42:01.491Z,23.07
2019-01-25T21:44:29.987Z,23.20
2019-01-25T21:46:59.611Z,22.77
2019-01-25T21:49:29.519Z,26.53
2019-01-25T21:51:58.091Z,25.50
2019-01-25T21:54:45.692Z,24.50
2019-01-25T22:00:28.189Z,25.30
2019-01-25T22:02:56.599Z,25.13
2019-01-25T22:05:44.225Z,26.13
2019-01-25T22:08:32.017Z,25.00
2019-01-25T22:11:00.819Z,23.63
2019-01-25T22:13:52.777Z,24.63
2019-01-25T22:16:18.756Z,24.30
2019-01-25T22:18:49.092Z,23.47
2019-01-25T22:21:17.583Z,24.00
2019-01-25T22:23:48.892Z,24.33
2019-01-25T22:26:17.350Z,23.63
2019-01-25T22:29:04.977Z,24.33
2019-01-25T22:41:00.777Z,23.57
2019-01-25T22:43:48.439Z,23.57
2019-01-25T22:46:36.148Z,25.57
2019-01-25T22:49:06.428Z,27.93
2019-01-25T22:51:37.593Z,28.33
2019-01-25T22:54:24.178Z,28.63
2019-01-25T22:56:54.719Z,30.20
2019-01-25T22:59:29.013Z,27.53
2019-01-25T23:01:57.571Z,28.63
2019-01-25T23:04:46.245Z,27.43
2019-01-25T23:07:35.012Z,27.63
2019-01-25T23:10:22.582Z,29.63
2019-01-25T23:13:10.372Z,27.50
2019-01-25T23:15:58.543Z,29.20
2019-01-25T23:18:47.835Z,30.13
2019-01-25T23:21:37.398Z,31.43
2019-01-25T23:24:25.000Z,33.03
2019-01-25T23:27:12.604Z,30.50
2019-01-25T23:30:01.143Z,31.33
2019-01-25T23:32:48.700Z,32.83
2019-01-25T23:35:36.331Z,29.37
2019-01-25T23:50:19.032Z,26.30
2019-01-25T23:53:06.595Z,24.77
2019-01-25T23:55:54.239Z,27.03
2019-01-25T23:58:41.835Z,26.03
